Indian Village, Louisiana
Current Conditions -  °F | °C
As of 1:15 PM on Saturday 20 Dec 2014 (Local Time) from KRSN Reporting Station
Broken Clouds Broken Clouds  
Wind Chill: 52°   Ceiling: 2000
Heat Index: 52°   Visibility: 10mi
Dew Point: 44°   Wind: 5mph
Humidity: 74%   Direction: 10°N
Pressure: 30.23"   Gusts: NA
Location:  32.5064°N, 92.3457°W
Report Text: KRSN 201915Z AUTO 01004KT 10SM BKN020 11/07 A3023 RMK AO2 T01100066
Loading
Personal Weather Stations






























Interactive Weather Map New forecast layout! Learn more

10-Day Weather Forecast

Advertisements
Track Severe Weather on mobile